sensor_id;sensor_type;location;lat;lon;timestamp;temperature;humidity
12477;DHT22;6303;51.504;6.300;2023-04-16T00:01:05;22.40;49.70
12477;DHT22;6303;51.504;6.300;2023-04-16T00:03:32;22.40;49.80
12477;DHT22;6303;51.504;6.300;2023-04-16T00:06:00;22.40;50.00
12477;DHT22;6303;51.504;6.300;2023-04-16T00:08:27;22.30;50.20
12477;DHT22;6303;51.504;6.300;2023-04-16T00:10:54;22.30;50.30
12477;DHT22;6303;51.504;6.300;2023-04-16T00:13:21;22.40;50.40
12477;DHT22;6303;51.504;6.300;2023-04-16T00:15:49;22.30;50.40
12477;DHT22;6303;51.504;6.300;2023-04-16T00:18:16;22.30;50.40
12477;DHT22;6303;51.504;6.300;2023-04-16T00:20:43;22.30;50.60
12477;DHT22;6303;51.504;6.300;2023-04-16T00:23:11;22.30;50.60
12477;DHT22;6303;51.504;6.300;2023-04-16T00:25:38;22.30;50.60
12477;DHT22;6303;51.504;6.300;2023-04-16T00:28:05;22.30;50.60
12477;DHT22;6303;51.504;6.300;2023-04-16T00:30:32;22.30;50.60
12477;DHT22;6303;51.504;6.300;2023-04-16T00:32:59;22.40;50.60
12477;DHT22;6303;51.504;6.300;2023-04-16T00:35:27;22.30;50.60
12477;DHT22;6303;51.504;6.300;2023-04-16T00:37:54;22.30;50.60
12477;DHT22;6303;51.504;6.300;2023-04-16T00:40:26;22.30;50.70
12477;DHT22;6303;51.504;6.300;2023-04-16T00:42:53;22.30;50.70
12477;DHT22;6303;51.504;6.300;2023-04-16T00:45:20;22.30;50.70
12477;DHT22;6303;51.504;6.300;2023-04-16T00:47:47;22.30;50.70
12477;DHT22;6303;51.504;6.300;2023-04-16T00:50:15;22.30;50.70
12477;DHT22;6303;51.504;6.300;2023-04-16T00:52:42;22.30;50.70
12477;DHT22;6303;51.504;6.300;2023-04-16T00:55:10;22.30;50.80
12477;DHT22;6303;51.504;6.300;2023-04-16T00:57:39;22.30;50.80
12477;DHT22;6303;51.504;6.300;2023-04-16T01:00:07;22.30;50.70
12477;DHT22;6303;51.504;6.300;2023-04-16T01:02:34;22.30;50.70
12477;DHT22;6303;51.504;6.300;2023-04-16T01:05:03;22.30;50.70
12477;DHT22;6303;51.504;6.300;2023-04-16T01:07:30;22.30;50.70
12477;DHT22;6303;51.504;6.300;2023-04-16T01:09:58;22.30;50.70
12477;DHT22;6303;51.504;6.300;2023-04-16T01:12:25;22.30;50.70
12477;DHT22;6303;51.504;6.300;2023-04-16T01:14:54;22.30;50.70
12477;DHT22;6303;51.504;6.300;2023-04-16T01:17:21;22.30;51.30
12477;DHT22;6303;51.504;6.300;2023-04-16T01:19:48;22.30;50.60
12477;DHT22;6303;51.504;6.300;2023-04-16T01:22:17;22.30;50.60
12477;DHT22;6303;51.504;6.300;2023-04-16T01:24:44;22.30;50.70
12477;DHT22;6303;51.504;6.300;2023-04-16T01:27:11;22.30;50.70
12477;DHT22;6303;51.504;6.300;2023-04-16T01:29:38;22.30;50.70
12477;DHT22;6303;51.504;6.300;2023-04-16T01:32:05;22.30;50.70
12477;DHT22;6303;51.504;6.300;2023-04-16T01:34:39;22.30;50.70
12477;DHT22;6303;51.504;6.300;2023-04-16T01:37:09;22.30;50.70
12477;DHT22;6303;51.504;6.300;2023-04-16T01:39:38;22.30;50.70
12477;DHT22;6303;51.504;6.300;2023-04-16T01:42:06;22.30;50.70
12477;DHT22;6303;51.504;6.300;2023-04-16T01:44:33;22.30;50.70
12477;DHT22;6303;51.504;6.300;2023-04-16T01:47:00;22.30;50.70
12477;DHT22;6303;51.504;6.300;2023-04-16T01:49:28;22.30;50.70
12477;DHT22;6303;51.504;6.300;2023-04-16T01:51:55;22.30;50.70
12477;DHT22;6303;51.504;6.300;2023-04-16T01:54:22;22.30;50.70
12477;DHT22;6303;51.504;6.300;2023-04-16T01:56:51;22.30;50.80
12477;DHT22;6303;51.504;6.300;2023-04-16T01:59:18;22.30;50.80
12477;DHT22;6303;51.504;6.300;2023-04-16T02:01:46;22.30;50.80
12477;DHT22;6303;51.504;6.300;2023-04-16T02:04:13;22.30;50.80
12477;DHT22;6303;51.504;6.300;2023-04-16T02:06:40;22.20;50.80
12477;DHT22;6303;51.504;6.300;2023-04-16T02:09:07;22.30;50.90
12477;DHT22;6303;51.504;6.300;2023-04-16T02:11:35;22.30;50.90
12477;DHT22;6303;51.504;6.300;2023-04-16T02:14:04;22.30;50.90
12477;DHT22;6303;51.504;6.300;2023-04-16T02:16:33;22.20;50.80
12477;DHT22;6303;51.504;6.300;2023-04-16T02:19:10;22.30;50.90
12477;DHT22;6303;51.504;6.300;2023-04-16T02:21:38;22.30;50.90
12477;DHT22;6303;51.504;6.300;2023-04-16T02:24:06;22.20;50.80
12477;DHT22;6303;51.504;6.300;2023-04-16T02:26:34;22.30;50.90
12477;DHT22;6303;51.504;6.300;2023-04-16T02:29:08;22.20;50.90
12477;DHT22;6303;51.504;6.300;2023-04-16T02:31:40;22.20;50.90
12477;DHT22;6303;51.504;6.300;2023-04-16T02:34:09;22.20;50.90
12477;DHT22;6303;51.504;6.300;2023-04-16T02:36:36;22.20;50.90
12477;DHT22;6303;51.504;6.300;2023-04-16T02:39:03;22.20;50.90
12477;DHT22;6303;51.504;6.300;2023-04-16T02:41:30;22.20;50.90
12477;DHT22;6303;51.504;6.300;2023-04-16T02:43:58;22.20;50.90
12477;DHT22;6303;51.504;6.300;2023-04-16T02:46:27;22.20;50.90
12477;DHT22;6303;51.504;6.300;2023-04-16T02:48:54;22.30;51.00
12477;DHT22;6303;51.504;6.300;2023-04-16T02:51:21;22.20;50.90
12477;DHT22;6303;51.504;6.300;2023-04-16T02:53:48;22.60;51.20
12477;DHT22;6303;51.504;6.300;2023-04-16T02:56:15;22.20;51.00
12477;DHT22;6303;51.504;6.300;2023-04-16T02:58:42;22.20;51.70
12477;DHT22;6303;51.504;6.300;2023-04-16T03:01:09;22.20;51.10
12477;DHT22;6303;51.504;6.300;2023-04-16T03:03:37;22.20;51.10
12477;DHT22;6303;51.504;6.300;2023-04-16T03:06:04;22.20;51.10
12477;DHT22;6303;51.504;6.300;2023-04-16T03:08:31;22.20;51.10
12477;DHT22;6303;51.504;6.300;2023-04-16T03:10:58;22.20;51.10
12477;DHT22;6303;51.504;6.300;2023-04-16T03:13:25;22.20;51.20
12477;DHT22;6303;51.504;6.300;2023-04-16T03:15:52;22.20;51.10
12477;DHT22;6303;51.504;6.300;2023-04-16T03:18:19;22.20;51.20
12477;DHT22;6303;51.504;6.300;2023-04-16T03:20:52;22.20;51.20
12477;DHT22;6303;51.504;6.300;2023-04-16T03:23:19;22.20;51.10
12477;DHT22;6303;51.504;6.300;2023-04-16T03:25:46;22.20;51.10
12477;DHT22;6303;51.504;6.300;2023-04-16T03:28:16;22.20;51.20
12477;DHT22;6303;51.504;6.300;2023-04-16T03:30:49;22.20;51.20
12477;DHT22;6303;51.504;6.300;2023-04-16T03:33:16;22.20;51.20
12477;DHT22;6303;51.504;6.300;2023-04-16T03:35:43;22.20;51.20
12477;DHT22;6303;51.504;6.300;2023-04-16T03:38:12;22.20;51.20
12477;DHT22;6303;51.504;6.300;2023-04-16T03:40:39;22.20;51.20
12477;DHT22;6303;51.504;6.300;2023-04-16T03:43:07;22.20;51.20
12477;DHT22;6303;51.504;6.300;2023-04-16T03:45:34;22.20;51.20
12477;DHT22;6303;51.504;6.300;2023-04-16T03:48:01;22.20;51.10
12477;DHT22;6303;51.504;6.300;2023-04-16T03:50:29;22.20;51.20
12477;DHT22;6303;51.504;6.300;2023-04-16T03:52:56;22.20;51.20
12477;DHT22;6303;51.504;6.300;2023-04-16T03:55:25;22.20;51.20
12477;DHT22;6303;51.504;6.300;2023-04-16T03:57:52;22.20;51.20
12477;DHT22;6303;51.504;6.300;2023-04-16T04:00:19;22.20;51.20
12477;DHT22;6303;51.504;6.300;2023-04-16T04:03:10;22.20;51.20
12477;DHT22;6303;51.504;6.300;2023-04-16T04:05:38;22.20;51.20
12477;DHT22;6303;51.504;6.300;2023-04-16T04:08:07;22.20;51.30
12477;DHT22;6303;51.504;6.300;2023-04-16T04:10:37;22.20;51.20
12477;DHT22;6303;51.504;6.300;2023-04-16T04:13:05;22.20;51.30
12477;DHT22;6303;51.504;6.300;2023-04-16T04:15:34;22.20;51.30
12477;DHT22;6303;51.504;6.300;2023-04-16T04:18:01;22.20;51.30
12477;DHT22;6303;51.504;6.300;2023-04-16T04:20:28;22.90;51.50
12477;DHT22;6303;51.504;6.300;2023-04-16T04:22:55;22.20;51.20
12477;DHT22;6303;51.504;6.300;2023-04-16T04:25:24;22.20;51.20
12477;DHT22;6303;51.504;6.300;2023-04-16T04:27:53;22.20;51.30
12477;DHT22;6303;51.504;6.300;2023-04-16T04:30:20;22.20;51.30
12477;DHT22;6303;51.504;6.300;2023-04-16T04:32:47;22.20;51.30
12477;DHT22;6303;51.504;6.300;2023-04-16T04:35:15;22.20;51.30
12477;DHT22;6303;51.504;6.300;2023-04-16T04:37:42;22.20;51.30
12477;DHT22;6303;51.504;6.300;2023-04-16T04:40:14;22.10;51.30
12477;DHT22;6303;51.504;6.300;2023-04-16T04:42:41;22.10;51.30
12477;DHT22;6303;51.504;6.300;2023-04-16T04:45:10;22.20;51.40
12477;DHT22;6303;51.504;6.300;2023-04-16T04:47:39;22.10;51.40
12477;DHT22;6303;51.504;6.300;2023-04-16T04:50:07;22.10;51.30
12477;DHT22;6303;51.504;6.300;2023-04-16T04:52:34;22.10;51.30
12477;DHT22;6303;51.504;6.300;2023-04-16T04:55:02;22.20;51.90
12477;DHT22;6303;51.504;6.300;2023-04-16T04:57:29;22.20;51.30
12477;DHT22;6303;51.504;6.300;2023-04-16T04:59:57;22.10;51.20
12477;DHT22;6303;51.504;6.300;2023-04-16T05:02:25;22.20;51.30
12477;DHT22;6303;51.504;6.300;2023-04-16T05:04:52;22.20;51.30
12477;DHT22;6303;51.504;6.300;2023-04-16T05:07:19;22.10;51.30
12477;DHT22;6303;51.504;6.300;2023-04-16T05:09:46;22.20;51.40
12477;DHT22;6303;51.504;6.300;2023-04-16T05:12:13;22.10;51.30
12477;DHT22;6303;51.504;6.300;2023-04-16T05:14:41;22.10;51.30
12477;DHT22;6303;51.504;6.300;2023-04-16T05:17:08;22.10;51.30
12477;DHT22;6303;51.504;6.300;2023-04-16T05:19:36;22.20;51.40
12477;DHT22;6303;51.504;6.300;2023-04-16T05:22:04;22.20;51.30
12477;DHT22;6303;51.504;6.300;2023-04-16T05:24:31;22.20;51.30
12477;DHT22;6303;51.504;6.300;2023-04-16T05:26:58;22.20;51.20
12477;DHT22;6303;51.504;6.300;2023-04-16T05:29:25;22.20;51.80
12477;DHT22;6303;51.504;6.300;2023-04-16T05:31:52;22.20;51.30
12477;DHT22;6303;51.504;6.300;2023-04-16T05:34:19;22.20;51.30
12477;DHT22;6303;51.504;6.300;2023-04-16T05:36:48;22.20;51.20
12477;DHT22;6303;51.504;6.300;2023-04-16T05:39:16;22.10;51.50
12477;DHT22;6303;51.504;6.300;2023-04-16T05:41:43;22.20;51.70
12477;DHT22;6303;51.504;6.300;2023-04-16T05:44:10;22.20;51.70
12477;DHT22;6303;51.504;6.300;2023-04-16T05:46:37;22.20;51.90
12477;DHT22;6303;51.504;6.300;2023-04-16T05:49:04;22.20;52.00
12477;DHT22;6303;51.504;6.300;2023-04-16T05:51:31;22.30;52.00
12477;DHT22;6303;51.504;6.300;2023-04-16T05:53:59;22.30;52.20
12477;DHT22;6303;51.504;6.300;2023-04-16T05:56:26;22.20;52.10
12477;DHT22;6303;51.504;6.300;2023-04-16T05:58:53;22.20;52.10
12477;DHT22;6303;51.504;6.300;2023-04-16T06:01:21;22.30;52.10
12477;DHT22;6303;51.504;6.300;2023-04-16T06:03:48;22.30;51.80
12477;DHT22;6303;51.504;6.300;2023-04-16T06:06:15;22.30;51.70
12477;DHT22;6303;51.504;6.300;2023-04-16T06:08:42;22.30;51.60
12477;DHT22;6303;51.504;6.300;2023-04-16T06:11:10;22.30;51.60
12477;DHT22;6303;51.504;6.300;2023-04-16T06:13:38;22.30;51.60
12477;DHT22;6303;51.504;6.300;2023-04-16T06:16:05;22.30;51.60
12477;DHT22;6303;51.504;6.300;2023-04-16T06:18:33;22.30;51.50
12477;DHT22;6303;51.504;6.300;2023-04-16T06:21:00;22.30;51.50
12477;DHT22;6303;51.504;6.300;2023-04-16T06:23:27;22.30;51.40
12477;DHT22;6303;51.504;6.300;2023-04-16T06:25:54;22.30;51.30
12477;DHT22;6303;51.504;6.300;2023-04-16T06:28:22;22.30;51.30
12477;DHT22;6303;51.504;6.300;2023-04-16T06:30:49;22.30;51.30
12477;DHT22;6303;51.504;6.300;2023-04-16T06:33:16;22.30;51.30
12477;DHT22;6303;51.504;6.300;2023-04-16T06:35:43;22.30;51.20
12477;DHT22;6303;51.504;6.300;2023-04-16T06:38:10;22.30;51.20
12477;DHT22;6303;51.504;6.300;2023-04-16T06:40:37;22.40;51.20
12477;DHT22;6303;51.504;6.300;2023-04-16T06:43:04;22.40;51.10
12477;DHT22;6303;51.504;6.300;2023-04-16T06:45:33;22.40;51.00
12477;DHT22;6303;51.504;6.300;2023-04-16T06:48:00;22.30;51.10
12477;DHT22;6303;51.504;6.300;2023-04-16T06:50:28;22.30;51.20
12477;DHT22;6303;51.504;6.300;2023-04-16T06:52:55;22.20;51.40
12477;DHT22;6303;51.504;6.300;2023-04-16T06:55:22;22.20;51.50
12477;DHT22;6303;51.504;6.300;2023-04-16T06:57:50;22.20;51.50
12477;DHT22;6303;51.504;6.300;2023-04-16T07:00:17;22.30;51.50
12477;DHT22;6303;51.504;6.300;2023-04-16T07:02:46;22.30;51.30
12477;DHT22;6303;51.504;6.300;2023-04-16T07:05:13;22.30;51.20
12477;DHT22;6303;51.504;6.300;2023-04-16T07:07:40;22.30;51.10
12477;DHT22;6303;51.504;6.300;2023-04-16T07:10:07;22.80;51.30
12477;DHT22;6303;51.504;6.300;2023-04-16T07:12:35;22.40;51.00
12477;DHT22;6303;51.504;6.300;2023-04-16T07:15:02;22.40;51.00
12477;DHT22;6303;51.504;6.300;2023-04-16T07:17:29;22.40;51.10
12477;DHT22;6303;51.504;6.300;2023-04-16T07:19:57;22.40;51.00
12477;DHT22;6303;51.504;6.300;2023-04-16T07:22:24;22.40;51.00
12477;DHT22;6303;51.504;6.300;2023-04-16T07:24:51;22.40;51.10
12477;DHT22;6303;51.504;6.300;2023-04-16T07:27:18;22.50;51.10
12477;DHT22;6303;51.504;6.300;2023-04-16T07:29:45;22.50;51.20
12477;DHT22;6303;51.504;6.300;2023-04-16T07:32:14;22.40;51.30
12477;DHT22;6303;51.504;6.300;2023-04-16T07:34:41;22.40;51.20
12477;DHT22;6303;51.504;6.300;2023-04-16T07:37:09;22.40;51.20
12477;DHT22;6303;51.504;6.300;2023-04-16T07:39:36;22.40;51.10
12477;DHT22;6303;51.504;6.300;2023-04-16T07:42:03;22.40;51.10
12477;DHT22;6303;51.504;6.300;2023-04-16T07:44:31;22.40;51.10
12477;DHT22;6303;51.504;6.300;2023-04-16T07:46:58;22.40;51.10
12477;DHT22;6303;51.504;6.300;2023-04-16T07:49:25;22.40;51.10
12477;DHT22;6303;51.504;6.300;2023-04-16T07:51:52;22.40;51.00
12477;DHT22;6303;51.504;6.300;2023-04-16T07:54:20;22.40;51.00
12477;DHT22;6303;51.504;6.300;2023-04-16T07:56:47;22.50;51.00
12477;DHT22;6303;51.504;6.300;2023-04-16T07:59:14;22.50;50.90
12477;DHT22;6303;51.504;6.300;2023-04-16T08:01:41;22.50;50.80
12477;DHT22;6303;51.504;6.300;2023-04-16T08:04:08;22.50;50.80
12477;DHT22;6303;51.504;6.300;2023-04-16T08:06:35;22.50;50.80
12477;DHT22;6303;51.504;6.300;2023-04-16T08:09:03;22.50;50.70
12477;DHT22;6303;51.504;6.300;2023-04-16T08:11:31;22.60;50.80
12477;DHT22;6303;51.504;6.300;2023-04-16T08:13:58;22.60;50.70
12477;DHT22;6303;51.504;6.300;2023-04-16T08:16:25;22.50;50.70
12477;DHT22;6303;51.504;6.300;2023-04-16T08:18:52;22.50;50.70
12477;DHT22;6303;51.504;6.300;2023-04-16T08:21:19;22.50;50.70
12477;DHT22;6303;51.504;6.300;2023-04-16T08:23:46;22.50;50.80
12477;DHT22;6303;51.504;6.300;2023-04-16T08:26:13;22.50;50.70
12477;DHT22;6303;51.504;6.300;2023-04-16T08:28:43;22.50;50.70
12477;DHT22;6303;51.504;6.300;2023-04-16T08:31:10;22.60;50.70
12477;DHT22;6303;51.504;6.300;2023-04-16T08:33:37;22.60;50.60
12477;DHT22;6303;51.504;6.300;2023-04-16T08:36:06;22.60;50.60
12477;DHT22;6303;51.504;6.300;2023-04-16T08:38:33;22.60;50.50
12477;DHT22;6303;51.504;6.300;2023-04-16T08:41:02;22.60;50.50
12477;DHT22;6303;51.504;6.300;2023-04-16T08:43:32;22.60;50.40
12477;DHT22;6303;51.504;6.300;2023-04-16T08:46:02;22.60;50.40
12477;DHT22;6303;51.504;6.300;2023-04-16T08:48:32;22.60;50.40
12477;DHT22;6303;51.504;6.300;2023-04-16T08:51:01;22.60;50.40
12477;DHT22;6303;51.504;6.300;2023-04-16T08:53:34;22.60;50.30
12477;DHT22;6303;51.504;6.300;2023-04-16T08:56:03;22.60;50.30
12477;DHT22;6303;51.504;6.300;2023-04-16T08:58:31;22.60;50.20
12477;DHT22;6303;51.504;6.300;2023-04-16T09:01:02;22.70;50.20
12477;DHT22;6303;51.504;6.300;2023-04-16T09:03:29;22.70;50.20
12477;DHT22;6303;51.504;6.300;2023-04-16T09:05:57;22.70;50.10
12477;DHT22;6303;51.504;6.300;2023-04-16T09:08:25;22.80;50.00
12477;DHT22;6303;51.504;6.300;2023-04-16T09:10:52;22.80;50.00
12477;DHT22;6303;51.504;6.300;2023-04-16T09:13:21;22.80;49.90
12477;DHT22;6303;51.504;6.300;2023-04-16T09:15:51;22.90;49.80
12477;DHT22;6303;51.504;6.300;2023-04-16T09:18:20;22.90;49.70
12477;DHT22;6303;51.504;6.300;2023-04-16T09:20:48;22.90;49.70
12477;DHT22;6303;51.504;6.300;2023-04-16T09:23:16;22.90;49.70
12477;DHT22;6303;51.504;6.300;2023-04-16T09:25:43;22.90;49.70
12477;DHT22;6303;51.504;6.300;2023-04-16T09:28:10;22.90;50.30
12477;DHT22;6303;51.504;6.300;2023-04-16T09:30:37;22.90;49.60
12477;DHT22;6303;51.504;6.300;2023-04-16T09:33:16;22.90;49.70
12477;DHT22;6303;51.504;6.300;2023-04-16T09:35:49;23.00;49.70
12477;DHT22;6303;51.504;6.300;2023-04-16T09:38:17;23.00;49.70
12477;DHT22;6303;51.504;6.300;2023-04-16T09:40:44;23.00;49.70
12477;DHT22;6303;51.504;6.300;2023-04-16T09:43:14;23.00;49.70
12477;DHT22;6303;51.504;6.300;2023-04-16T09:45:48;23.10;49.60
12477;DHT22;6303;51.504;6.300;2023-04-16T09:48:26;23.20;49.60
12477;DHT22;6303;51.504;6.300;2023-04-16T09:50:55;23.20;49.60
12477;DHT22;6303;51.504;6.300;2023-04-16T09:53:23;23.20;49.50
12477;DHT22;6303;51.504;6.300;2023-04-16T09:55:50;23.20;49.40
12477;DHT22;6303;51.504;6.300;2023-04-16T09:58:18;23.20;49.40
12477;DHT22;6303;51.504;6.300;2023-04-16T10:00:45;23.30;49.30
12477;DHT22;6303;51.504;6.300;2023-04-16T10:03:12;23.30;49.30
12477;DHT22;6303;51.504;6.300;2023-04-16T10:05:39;23.30;49.20
12477;DHT22;6303;51.504;6.300;2023-04-16T10:08:15;23.30;49.20
12477;DHT22;6303;51.504;6.300;2023-04-16T10:10:43;23.40;49.20
12477;DHT22;6303;51.504;6.300;2023-04-16T10:13:10;23.40;49.10
12477;DHT22;6303;51.504;6.300;2023-04-16T10:15:42;23.40;49.00
12477;DHT22;6303;51.504;6.300;2023-04-16T10:18:09;23.50;49.00
12477;DHT22;6303;51.504;6.300;2023-04-16T10:20:36;23.50;48.90
12477;DHT22;6303;51.504;6.300;2023-04-16T10:23:03;23.50;49.50
12477;DHT22;6303;51.504;6.300;2023-04-16T10:25:33;23.60;48.90
12477;DHT22;6303;51.504;6.300;2023-04-16T10:28:00;23.60;48.70
12477;DHT22;6303;51.504;6.300;2023-04-16T10:30:28;23.70;48.60
12477;DHT22;6303;51.504;6.300;2023-04-16T10:32:56;23.70;48.50
12477;DHT22;6303;51.504;6.300;2023-04-16T10:35:24;23.70;48.40
12477;DHT22;6303;51.504;6.300;2023-04-16T10:37:55;23.70;48.40
12477;DHT22;6303;51.504;6.300;2023-04-16T10:40:23;23.70;48.40
12477;DHT22;6303;51.504;6.300;2023-04-16T10:42:58;23.70;48.40
12477;DHT22;6303;51.504;6.300;2023-04-16T10:45:29;23.80;48.40
12477;DHT22;6303;51.504;6.300;2023-04-16T10:47:57;23.40;48.00
12477;DHT22;6303;51.504;6.300;2023-04-16T10:50:24;23.90;48.10
12477;DHT22;6303;51.504;6.300;2023-04-16T10:53:23;24.10;48.00
12477;DHT22;6303;51.504;6.300;2023-04-16T10:58:43;24.10;47.90
12477;DHT22;6303;51.504;6.300;2023-04-16T11:01:12;24.00;47.90
12477;DHT22;6303;51.504;6.300;2023-04-16T11:03:44;24.00;48.00
12477;DHT22;6303;51.504;6.300;2023-04-16T11:06:13;23.90;48.00
12477;DHT22;6303;51.504;6.300;2023-04-16T11:08:42;23.90;48.10
12477;DHT22;6303;51.504;6.300;2023-04-16T11:11:10;23.90;48.10
12477;DHT22;6303;51.504;6.300;2023-04-16T11:13:43;23.90;48.10
12477;DHT22;6303;51.504;6.300;2023-04-16T11:16:10;23.90;48.10
12477;DHT22;6303;51.504;6.300;2023-04-16T11:18:38;23.90;48.10
12477;DHT22;6303;51.504;6.300;2023-04-16T11:21:07;23.90;48.10
12477;DHT22;6303;51.504;6.300;2023-04-16T11:23:45;23.80;48.10
12477;DHT22;6303;51.504;6.300;2023-04-16T11:26:21;23.80;48.10
12477;DHT22;6303;51.504;6.300;2023-04-16T11:28:50;23.90;48.10
12477;DHT22;6303;51.504;6.300;2023-04-16T11:31:17;23.90;48.10
12477;DHT22;6303;51.504;6.300;2023-04-16T11:33:44;23.90;48.00
12477;DHT22;6303;51.504;6.300;2023-04-16T11:36:11;23.90;48.60
12477;DHT22;6303;51.504;6.300;2023-04-16T11:38:38;23.90;48.00
12477;DHT22;6303;51.504;6.300;2023-04-16T11:41:08;23.90;48.10
12477;DHT22;6303;51.504;6.300;2023-04-16T11:43:36;23.80;48.10
12477;DHT22;6303;51.504;6.300;2023-04-16T11:46:05;23.80;48.10
12477;DHT22;6303;51.504;6.300;2023-04-16T11:48:46;23.80;48.20
12477;DHT22;6303;51.504;6.300;2023-04-16T11:51:13;23.80;48.20
12477;DHT22;6303;51.504;6.300;2023-04-16T11:53:48;23.80;48.20
12477;DHT22;6303;51.504;6.300;2023-04-16T11:56:24;23.80;48.20
12477;DHT22;6303;51.504;6.300;2023-04-16T11:59:05;23.80;48.20
12477;DHT22;6303;51.504;6.300;2023-04-16T12:01:36;23.80;48.20
12477;DHT22;6303;51.504;6.300;2023-04-16T12:04:04;23.70;48.20
12477;DHT22;6303;51.504;6.300;2023-04-16T12:06:31;23.70;48.20
12477;DHT22;6303;51.504;6.300;2023-04-16T12:08:59;23.70;48.20
12477;DHT22;6303;51.504;6.300;2023-04-16T12:11:38;23.70;48.30
12477;DHT22;6303;51.504;6.300;2023-04-16T12:14:06;23.70;48.30
12477;DHT22;6303;51.504;6.300;2023-04-16T12:16:35;23.70;48.30
12477;DHT22;6303;51.504;6.300;2023-04-16T12:19:03;23.70;48.30
12477;DHT22;6303;51.504;6.300;2023-04-16T12:21:38;23.70;48.30
12477;DHT22;6303;51.504;6.300;2023-04-16T12:24:07;23.70;48.30
12477;DHT22;6303;51.504;6.300;2023-04-16T12:26:40;23.80;48.40
12477;DHT22;6303;51.504;6.300;2023-04-16T12:29:14;23.80;48.40
12477;DHT22;6303;51.504;6.300;2023-04-16T12:31:43;23.80;48.40
12477;DHT22;6303;51.504;6.300;2023-04-16T12:34:10;23.80;48.50
12477;DHT22;6303;51.504;6.300;2023-04-16T12:36:37;23.80;48.50
12477;DHT22;6303;51.504;6.300;2023-04-16T12:39:04;23.70;48.60
12477;DHT22;6303;51.504;6.300;2023-04-16T12:41:32;23.70;48.60
12477;DHT22;6303;51.504;6.300;2023-04-16T12:44:04;23.70;48.60
12477;DHT22;6303;51.504;6.300;2023-04-16T12:46:34;23.70;48.60
12477;DHT22;6303;51.504;6.300;2023-04-16T12:49:04;23.70;48.60
12477;DHT22;6303;51.504;6.300;2023-04-16T12:51:32;23.70;48.60
12477;DHT22;6303;51.504;6.300;2023-04-16T12:54:01;23.70;48.70
12477;DHT22;6303;51.504;6.300;2023-04-16T12:56:28;23.70;48.70
12477;DHT22;6303;51.504;6.300;2023-04-16T12:58:56;23.70;48.70
12477;DHT22;6303;51.504;6.300;2023-04-16T13:01:23;23.70;48.70
12477;DHT22;6303;51.504;6.300;2023-04-16T13:03:50;23.70;48.60
12477;DHT22;6303;51.504;6.300;2023-04-16T13:06:19;23.70;48.60
12477;DHT22;6303;51.504;6.300;2023-04-16T13:08:46;23.80;48.70
12477;DHT22;6303;51.504;6.300;2023-04-16T13:11:13;23.80;48.70
12477;DHT22;6303;51.504;6.300;2023-04-16T13:13:40;23.80;48.80
12477;DHT22;6303;51.504;6.300;2023-04-16T13:16:07;23.80;49.00
12477;DHT22;6303;51.504;6.300;2023-04-16T13:18:34;23.80;49.20
12477;DHT22;6303;51.504;6.300;2023-04-16T13:21:02;23.80;49.60
12477;DHT22;6303;51.504;6.300;2023-04-16T13:23:31;23.80;49.90
12477;DHT22;6303;51.504;6.300;2023-04-16T13:25:58;23.90;50.50
12477;DHT22;6303;51.504;6.300;2023-04-16T13:28:25;23.90;50.50
12477;DHT22;6303;51.504;6.300;2023-04-16T13:30:52;23.90;50.60
12477;DHT22;6303;51.504;6.300;2023-04-16T13:33:20;23.90;50.70
12477;DHT22;6303;51.504;6.300;2023-04-16T13:35:48;23.90;50.70
12477;DHT22;6303;51.504;6.300;2023-04-16T13:38:15;23.90;50.80
12477;DHT22;6303;51.504;6.300;2023-04-16T13:40:44;23.90;50.90
12477;DHT22;6303;51.504;6.300;2023-04-16T13:43:11;23.90;50.90
12477;DHT22;6303;51.504;6.300;2023-04-16T13:45:41;23.90;50.90
12477;DHT22;6303;51.504;6.300;2023-04-16T13:48:08;23.90;50.80
12477;DHT22;6303;51.504;6.300;2023-04-16T13:50:35;23.90;50.80
12477;DHT22;6303;51.504;6.300;2023-04-16T13:53:02;23.90;50.80
12477;DHT22;6303;51.504;6.300;2023-04-16T13:55:30;23.80;50.80
12477;DHT22;6303;51.504;6.300;2023-04-16T13:57:58;23.80;50.80
12477;DHT22;6303;51.504;6.300;2023-04-16T14:00:26;23.90;51.30
12477;DHT22;6303;51.504;6.300;2023-04-16T14:02:53;23.90;50.70
12477;DHT22;6303;51.504;6.300;2023-04-16T14:05:20;23.80;50.60
12477;DHT22;6303;51.504;6.300;2023-04-16T14:07:48;23.80;50.60
12477;DHT22;6303;51.504;6.300;2023-04-16T14:10:15;23.80;50.60
12477;DHT22;6303;51.504;6.300;2023-04-16T14:12:43;23.80;50.60
12477;DHT22;6303;51.504;6.300;2023-04-16T14:15:11;23.80;50.60
12477;DHT22;6303;51.504;6.300;2023-04-16T14:17:40;23.80;50.60
12477;DHT22;6303;51.504;6.300;2023-04-16T14:20:09;23.80;50.50
12477;DHT22;6303;51.504;6.300;2023-04-16T14:22:37;23.80;50.50
12477;DHT22;6303;51.504;6.300;2023-04-16T14:25:05;23.80;50.50
12477;DHT22;6303;51.504;6.300;2023-04-16T14:27:32;23.80;50.50
12477;DHT22;6303;51.504;6.300;2023-04-16T14:29:59;23.80;50.50
12477;DHT22;6303;51.504;6.300;2023-04-16T14:32:28;23.70;50.40
12477;DHT22;6303;51.504;6.300;2023-04-16T14:34:55;23.70;50.40
12477;DHT22;6303;51.504;6.300;2023-04-16T14:37:22;23.70;50.40
12477;DHT22;6303;51.504;6.300;2023-04-16T14:39:49;23.70;50.40
12477;DHT22;6303;51.504;6.300;2023-04-16T14:42:16;23.70;50.40
12477;DHT22;6303;51.504;6.300;2023-04-16T14:44:43;23.70;50.40
12477;DHT22;6303;51.504;6.300;2023-04-16T14:47:10;23.70;50.40
12477;DHT22;6303;51.504;6.300;2023-04-16T14:49:38;23.70;50.40
12477;DHT22;6303;51.504;6.300;2023-04-16T14:52:06;23.70;50.30
12477;DHT22;6303;51.504;6.300;2023-04-16T14:54:33;23.70;50.20
12477;DHT22;6303;51.504;6.300;2023-04-16T14:57:00;23.70;50.20
12477;DHT22;6303;51.504;6.300;2023-04-16T14:59:28;23.70;50.20
12477;DHT22;6303;51.504;6.300;2023-04-16T15:01:55;23.80;50.20
12477;DHT22;6303;51.504;6.300;2023-04-16T15:04:23;23.80;50.20
12477;DHT22;6303;51.504;6.300;2023-04-16T15:06:52;23.80;50.20
12477;DHT22;6303;51.504;6.300;2023-04-16T15:09:24;23.80;50.20
12477;DHT22;6303;51.504;6.300;2023-04-16T15:11:51;23.80;50.20
12477;DHT22;6303;51.504;6.300;2023-04-16T15:14:18;23.70;50.20
12477;DHT22;6303;51.504;6.300;2023-04-16T15:16:46;23.70;50.20
12477;DHT22;6303;51.504;6.300;2023-04-16T15:19:13;23.70;50.20
12477;DHT22;6303;51.504;6.300;2023-04-16T15:21:40;23.70;50.20
12477;DHT22;6303;51.504;6.300;2023-04-16T15:24:08;23.70;50.20
12477;DHT22;6303;51.504;6.300;2023-04-16T15:26:35;23.70;50.30
12477;DHT22;6303;51.504;6.300;2023-04-16T15:29:03;23.70;50.30
12477;DHT22;6303;51.504;6.300;2023-04-16T15:31:30;23.70;50.30
12477;DHT22;6303;51.504;6.300;2023-04-16T15:33:57;23.70;50.30
12477;DHT22;6303;51.504;6.300;2023-04-16T15:36:24;23.70;50.30
12477;DHT22;6303;51.504;6.300;2023-04-16T15:38:52;23.70;50.30
12477;DHT22;6303;51.504;6.300;2023-04-16T15:41:20;23.70;50.30
12477;DHT22;6303;51.504;6.300;2023-04-16T15:43:47;23.70;50.30
12477;DHT22;6303;51.504;6.300;2023-04-16T15:46:14;23.70;50.30
12477;DHT22;6303;51.504;6.300;2023-04-16T15:48:42;23.70;50.30
12477;DHT22;6303;51.504;6.300;2023-04-16T15:51:09;23.70;50.30
12477;DHT22;6303;51.504;6.300;2023-04-16T15:53:36;23.70;50.30